createdAt,value
2018-05-09T00:00:46.906Z,0
2018-05-09T00:01:48.334Z,0
2018-05-09T00:02:49.728Z,0
2018-05-09T00:03:51.124Z,0
2018-05-09T00:04:52.521Z,0
2018-05-09T00:05:53.911Z,0
2018-05-09T00:06:55.302Z,0
2018-05-09T00:07:56.707Z,0
2018-05-09T00:08:58.084Z,0
2018-05-09T00:09:59.476Z,0
2018-05-09T00:11:00.873Z,0
2018-05-09T00:12:02.313Z,0
2018-05-09T00:13:03.663Z,0
2018-05-09T00:14:05.053Z,0
2018-05-09T00:15:06.446Z,0
2018-05-09T00:16:07.839Z,0
2018-05-09T00:17:09.229Z,0
2018-05-09T00:18:10.624Z,0
2018-05-09T00:19:12.030Z,0
2018-05-09T00:20:13.422Z,0
2018-05-09T00:21:14.815Z,0
2018-05-09T00:22:16.209Z,0
2018-05-09T00:23:17.611Z,0
2018-05-09T00:24:19.002Z,0
2018-05-09T00:25:20.399Z,0
2018-05-09T00:26:21.795Z,0
2018-05-09T00:27:23.183Z,0
2018-05-09T00:28:24.577Z,0
2018-05-09T00:29:25.965Z,0
2018-05-09T00:30:27.360Z,0
2018-05-09T00:31:28.853Z,0
2018-05-09T00:32:30.247Z,0
2018-05-09T00:33:31.643Z,0
2018-05-09T00:34:33.033Z,0
2018-05-09T00:35:34.424Z,0
2018-05-09T00:36:35.817Z,0
2018-05-09T00:37:37.211Z,0
2018-05-09T00:38:38.604Z,0
2018-05-09T00:39:40.002Z,0
2018-05-09T00:40:41.393Z,0
2018-05-09T00:41:42.856Z,0
2018-05-09T00:42:44.176Z,0
2018-05-09T00:43:45.570Z,0
2018-05-09T00:44:46.972Z,0
2018-05-09T00:45:48.366Z,0
2018-05-09T00:46:49.758Z,0
2018-05-09T00:47:51.151Z,0
2018-05-09T00:48:52.546Z,0
2018-05-09T00:49:53.938Z,0
2018-05-09T00:50:55.328Z,0
2018-05-09T00:51:56.723Z,0
2018-05-09T00:52:58.119Z,0
2018-05-09T00:53:59.508Z,0
2018-05-09T00:55:00.903Z,0
2018-05-09T00:56:02.298Z,0
2018-05-09T00:57:03.684Z,0
2018-05-09T00:58:05.077Z,0
2018-05-09T00:59:06.470Z,0
2018-05-09T01:00:07.866Z,0
2018-05-09T01:01:09.257Z,0
2018-05-09T01:02:10.650Z,0
2018-05-09T01:03:12.041Z,0
2018-05-09T01:04:13.434Z,0
2018-05-09T01:05:14.824Z,0
2018-05-09T01:06:16.216Z,0
2018-05-09T01:07:17.617Z,0
2018-05-09T01:08:19.008Z,0
2018-05-09T01:09:20.408Z,0
2018-05-09T01:10:21.798Z,0
2018-05-09T01:11:23.187Z,0
2018-05-09T01:12:24.580Z,0
2018-05-09T01:13:25.971Z,0
2018-05-09T01:14:27.366Z,0
2018-05-09T01:15:28.757Z,0
2018-05-09T01:16:30.151Z,0
2018-05-09T01:17:31.593Z,0
2018-05-09T01:18:32.984Z,0
2018-05-09T01:19:34.378Z,0
2018-05-09T01:20:35.769Z,0
2018-05-09T01:21:37.167Z,0
2018-05-09T01:22:38.562Z,0
2018-05-09T01:23:39.957Z,0
2018-05-09T01:24:41.344Z,0
2018-05-09T01:25:42.737Z,0
2018-05-09T01:26:44.129Z,0
2018-05-09T01:27:45.537Z,0
2018-05-09T01:28:46.916Z,0
2018-05-09T01:29:48.309Z,0
2018-05-09T01:30:49.702Z,0
2018-05-09T01:31:51.093Z,0
2018-05-09T01:32:52.482Z,0
2018-05-09T01:33:53.873Z,0
2018-05-09T01:34:55.265Z,0
2018-05-09T01:35:56.662Z,0
2018-05-09T01:36:58.052Z,0
2018-05-09T01:37:59.446Z,0
2018-05-09T01:39:00.838Z,0
2018-05-09T01:40:02.230Z,0
2018-05-09T01:41:03.622Z,0
2018-05-09T01:42:05.030Z,0
2018-05-09T01:43:06.419Z,0
2018-05-09T01:44:07.817Z,0
2018-05-09T01:45:09.210Z,0
2018-05-09T01:46:10.603Z,0
2018-05-09T01:47:11.996Z,0
2018-05-09T01:48:13.417Z,0
2018-05-09T01:49:14.805Z,0
2018-05-09T01:50:16.197Z,0
2018-05-09T01:51:17.590Z,0
2018-05-09T01:52:18.982Z,0
2018-05-09T01:53:20.374Z,0
2018-05-09T01:54:21.764Z,0
2018-05-09T01:55:23.153Z,0
2018-05-09T01:56:24.550Z,0
2018-05-09T01:57:25.942Z,0
2018-05-09T01:58:27.336Z,0
2018-05-09T01:59:28.754Z,0
2018-05-09T02:00:30.142Z,0
2018-05-09T02:01:31.536Z,0
2018-05-09T02:02:32.969Z,0
2018-05-09T02:03:34.407Z,0
2018-05-09T02:04:35.804Z,0
2018-05-09T02:05:37.199Z,0
2018-05-09T02:06:38.592Z,0
2018-05-09T02:07:39.979Z,0
2018-05-09T02:08:41.377Z,0
2018-05-09T02:09:42.765Z,0
2018-05-09T02:10:44.159Z,0
2018-05-09T02:11:45.544Z,0
2018-05-09T02:12:46.935Z,0
2018-05-09T02:13:48.329Z,0
2018-05-09T02:14:49.718Z,0
2018-05-09T02:15:51.108Z,0
2018-05-09T02:16:52.497Z,0
2018-05-09T02:17:53.892Z,0
2018-05-09T02:18:55.284Z,0
2018-05-09T02:19:56.676Z,0
2018-05-09T02:20:58.063Z,0
2018-05-09T02:21:59.453Z,0
2018-05-09T02:23:00.848Z,0
2018-05-09T02:24:02.248Z,0
2018-05-09T02:25:03.628Z,0
2018-05-09T02:26:05.020Z,0
2018-05-09T02:27:06.416Z,0
2018-05-09T02:28:07.809Z,0
2018-05-09T02:29:09.200Z,0
2018-05-09T02:30:10.592Z,0
2018-05-09T02:31:12.082Z,0
2018-05-09T02:32:13.376Z,0
2018-05-09T02:33:14.767Z,0
2018-05-09T02:34:16.161Z,0
2018-05-09T02:35:17.555Z,0
2018-05-09T02:36:18.945Z,0
2018-05-09T02:37:20.331Z,0
2018-05-09T02:38:21.722Z,0
2018-05-09T02:39:23.113Z,0
2018-05-09T02:40:24.504Z,0
2018-05-09T02:41:25.900Z,0
2018-05-09T02:42:27.294Z,0
2018-05-09T02:43:28.682Z,0
2018-05-09T02:44:30.072Z,0
2018-05-09T02:45:31.463Z,0
2018-05-09T02:46:32.857Z,0
2018-05-09T02:47:34.251Z,0
2018-05-09T02:48:35.641Z,0
2018-05-09T02:49:37.112Z,0
2018-05-09T02:50:38.617Z,0
2018-05-09T02:51:39.919Z,0
2018-05-09T02:52:41.489Z,0
2018-05-09T02:53:42.703Z,0
2018-05-09T02:54:44.094Z,0
2018-05-09T02:55:45.486Z,0
2018-05-09T02:56:46.883Z,0
2018-05-09T02:57:48.274Z,0
2018-05-09T02:58:49.663Z,0
2018-05-09T02:59:51.056Z,0
2018-05-09T03:00:52.446Z,0
2018-05-09T03:01:53.835Z,0
2018-05-09T03:02:55.228Z,0
2018-05-09T03:03:56.620Z,0
2018-05-09T03:04:58.040Z,0
2018-05-09T03:05:59.442Z,0
2018-05-09T03:07:00.823Z,0
2018-05-09T03:08:02.213Z,0
2018-05-09T03:09:03.605Z,0
2018-05-09T03:10:05.014Z,0
2018-05-09T03:11:06.405Z,0
2018-05-09T03:12:07.794Z,0
2018-05-09T03:13:09.186Z,0
2018-05-09T03:14:10.578Z,0
2018-05-09T03:15:11.971Z,0
2018-05-09T03:16:13.357Z,0
2018-05-09T03:17:14.751Z,0
2018-05-09T03:18:16.146Z,0
2018-05-09T03:19:17.531Z,0
2018-05-09T03:20:18.953Z,0
2018-05-09T03:21:20.308Z,0
2018-05-09T03:22:21.700Z,0
2018-05-09T03:23:23.095Z,0
2018-05-09T03:24:24.487Z,0
2018-05-09T03:25:25.881Z,0
2018-05-09T03:26:27.269Z,0
2018-05-09T03:27:28.659Z,0
2018-05-09T03:28:30.048Z,0
2018-05-09T03:29:31.438Z,0
2018-05-09T03:30:32.837Z,0
2018-05-09T03:31:34.222Z,0
2018-05-09T03:32:35.621Z,0
2018-05-09T03:33:37.013Z,0
2018-05-09T03:34:38.403Z,0
2018-05-09T03:35:39.813Z,0
2018-05-09T03:36:41.243Z,0
2018-05-09T03:37:42.639Z,0
2018-05-09T03:38:44.033Z,0
2018-05-09T03:39:45.425Z,0
2018-05-09T03:40:46.817Z,0
2018-05-09T03:41:48.212Z,0
2018-05-09T03:42:49.598Z,0
2018-05-09T03:43:50.989Z,0
2018-05-09T03:44:52.386Z,0
2018-05-09T03:45:53.779Z,0
2018-05-09T03:46:55.173Z,0
2018-05-09T03:47:56.563Z,0
2018-05-09T03:48:57.959Z,0
2018-05-09T03:49:59.378Z,0
2018-05-09T03:51:00.768Z,0
2018-05-09T03:52:02.163Z,0
2018-05-09T03:53:03.546Z,0
2018-05-09T03:54:04.939Z,0
2018-05-09T03:55:06.333Z,0
2018-05-09T03:56:07.725Z,0
2018-05-09T03:57:09.116Z,0
2018-05-09T03:58:10.509Z,0
2018-05-09T03:59:11.905Z,0
2018-05-09T04:00:13.297Z,0
2018-05-09T04:01:14.690Z,0
2018-05-09T04:02:16.081Z,0
2018-05-09T04:03:17.478Z,5
2018-05-09T04:04:18.872Z,5
2018-05-09T04:05:20.265Z,5
2018-05-09T04:06:21.671Z,5
2018-05-09T04:07:23.064Z,5
2018-05-09T04:08:24.458Z,5
2018-05-09T04:09:25.928Z,5
2018-05-09T04:10:27.242Z,5
2018-05-09T04:11:28.636Z,5
2018-05-09T04:12:30.032Z,5
2018-05-09T04:13:31.423Z,5
2018-05-09T04:14:32.826Z,5
2018-05-09T04:15:34.222Z,5
2018-05-09T04:16:35.615Z,5
2018-05-09T04:17:37.006Z,5
2018-05-09T04:18:38.399Z,11
2018-05-09T04:19:39.794Z,11
2018-05-09T04:20:41.224Z,11
2018-05-09T04:21:42.618Z,11
2018-05-09T04:22:44.052Z,11
2018-05-09T04:23:45.455Z,11
2018-05-09T04:24:46.903Z,11
2018-05-09T04:25:48.251Z,11
2018-05-09T04:26:49.644Z,11
2018-05-09T04:27:51.073Z,11
2018-05-09T04:28:52.468Z,11
2018-05-09T04:29:53.900Z,11
2018-05-09T04:30:55.293Z,11
2018-05-09T04:31:56.686Z,16
2018-05-09T04:32:58.081Z,16
2018-05-09T04:33:59.480Z,16
2018-05-09T04:35:00.893Z,16
2018-05-09T04:36:02.300Z,16
2018-05-09T04:37:03.690Z,16
2018-05-09T04:38:05.085Z,16
2018-05-09T04:39:06.478Z,16
2018-05-09T04:40:08.389Z,16
2018-05-09T04:41:09.787Z,16
2018-05-09T04:42:11.187Z,16
2018-05-09T04:43:12.605Z,22
2018-05-09T04:44:13.993Z,22
2018-05-09T04:45:15.393Z,22
2018-05-09T04:46:16.792Z,22
2018-05-09T04:47:18.236Z,22
2018-05-09T04:48:19.626Z,22
2018-05-09T04:49:21.040Z,22
2018-05-09T04:50:22.435Z,22
2018-05-09T04:51:23.853Z,22
2018-05-09T04:52:25.252Z,22
2018-05-09T04:53:26.637Z,22
2018-05-09T04:54:28.034Z,22
2018-05-09T04:55:29.477Z,22
2018-05-09T04:56:30.829Z,28
2018-05-09T04:57:32.683Z,28
2018-05-09T04:58:34.079Z,28
2018-05-09T04:59:35.478Z,28
2018-05-09T05:00:36.884Z,28
2018-05-09T05:01:38.280Z,28
2018-05-09T05:02:39.673Z,28
2018-05-09T05:03:41.070Z,28
2018-05-09T05:04:42.466Z,28
2018-05-09T05:05:43.855Z,28
2018-05-09T05:06:45.328Z,28
2018-05-09T05:07:46.727Z,28
2018-05-09T05:08:48.123Z,28
2018-05-09T05:09:49.549Z,28
2018-05-09T05:10:50.939Z,28
2018-05-09T05:11:52.659Z,33
2018-05-09T05:12:54.056Z,33
2018-05-09T05:13:55.446Z,33
2018-05-09T05:14:56.923Z,33
2018-05-09T05:15:58.323Z,33
2018-05-09T05:16:59.722Z,33
2018-05-09T05:18:01.226Z,33
2018-05-09T05:19:02.588Z,33
2018-05-09T05:20:03.982Z,33
2018-05-09T05:21:05.382Z,33
2018-05-09T05:22:06.812Z,33
2018-05-09T05:23:08.195Z,33
2018-05-09T05:24:09.600Z,33
2018-05-09T05:25:10.993Z,33
2018-05-09T05:26:12.393Z,39
2018-05-09T05:27:13.793Z,39
2018-05-09T05:28:15.218Z,39
2018-05-09T05:29:16.594Z,39
2018-05-09T05:30:18.066Z,39
2018-05-09T05:31:19.454Z,39
2018-05-09T05:32:20.871Z,39
2018-05-09T05:33:22.268Z,39
2018-05-09T05:34:23.662Z,39
2018-05-09T05:35:25.055Z,39
2018-05-09T05:36:26.448Z,39
2018-05-09T05:37:27.843Z,39
2018-05-09T05:38:29.238Z,39
2018-05-09T05:39:30.636Z,39
2018-05-09T05:40:32.043Z,39
2018-05-09T05:41:33.441Z,45
2018-05-09T05:42:34.837Z,45
2018-05-09T05:43:36.227Z,45
2018-05-09T05:44:37.625Z,45
2018-05-09T05:45:39.111Z,45
2018-05-09T05:46:40.501Z,45
2018-05-09T05:47:41.984Z,45
2018-05-09T05:48:43.381Z,45
2018-05-09T05:49:44.781Z,45
2018-05-09T05:50:46.169Z,45
2018-05-09T05:51:47.700Z,45
2018-05-09T05:52:49.096Z,45
2018-05-09T05:53:50.506Z,45
2018-05-09T05:54:51.898Z,45
2018-05-09T05:55:53.295Z,50
2018-05-09T05:56:54.688Z,50
2018-05-09T05:57:56.083Z,50
2018-05-09T05:58:57.479Z,50
2018-05-09T05:59:58.894Z,50
2018-05-09T06:01:00.304Z,50
2018-05-09T06:02:01.701Z,50
2018-05-09T06:03:03.099Z,50
2018-05-09T06:04:04.494Z,50
2018-05-09T06:05:05.903Z,50
2018-05-09T06:06:07.299Z,50
2018-05-09T06:07:08.694Z,50
2018-05-09T06:08:10.097Z,50
2018-05-09T06:09:11.492Z,56
2018-05-09T06:10:12.886Z,56
2018-05-09T06:11:14.280Z,56
2018-05-09T06:12:15.676Z,56
2018-05-09T06:13:17.087Z,56
2018-05-09T06:14:18.470Z,56
2018-05-09T06:15:19.869Z,56
2018-05-09T06:16:21.262Z,56
2018-05-09T06:17:22.659Z,56
2018-05-09T06:18:24.055Z,56
2018-05-09T06:19:25.489Z,56
2018-05-09T06:20:26.853Z,56
2018-05-09T06:21:28.253Z,61
2018-05-09T06:22:29.655Z,61
2018-05-09T06:23:31.050Z,61
2018-05-09T06:24:32.449Z,61
2018-05-09T06:25:33.843Z,61
2018-05-09T06:26:35.240Z,61
2018-05-09T06:27:36.640Z,61
2018-05-09T06:28:38.043Z,61
2018-05-09T06:29:39.442Z,61
2018-05-09T06:30:40.836Z,61
2018-05-09T06:31:42.239Z,67
2018-05-09T06:32:43.635Z,67
2018-05-09T06:33:45.027Z,67
2018-05-09T06:34:46.424Z,67
2018-05-09T06:35:47.819Z,67
2018-05-09T06:36:49.235Z,67
2018-05-09T06:37:50.734Z,67
2018-05-09T06:38:52.092Z,67
2018-05-09T06:39:53.488Z,67
2018-05-09T06:40:54.888Z,73
2018-05-09T06:41:56.284Z,73
2018-05-09T06:42:57.727Z,73
2018-05-09T06:43:59.079Z,73
2018-05-09T06:45:00.478Z,73
2018-05-09T06:46:01.969Z,73
2018-05-09T06:47:03.271Z,73
2018-05-09T06:48:04.682Z,73
2018-05-09T06:49:06.078Z,73
2018-05-09T06:50:07.470Z,78
2018-05-09T06:51:08.867Z,78
2018-05-09T06:52:10.263Z,73
2018-05-09T06:53:11.658Z,73
2018-05-09T06:54:13.060Z,73
2018-05-09T06:55:14.459Z,73
2018-05-09T06:56:15.855Z,73
2018-05-09T06:57:17.249Z,73
2018-05-09T06:58:18.646Z,78
2018-05-09T06:59:20.044Z,78
2018-05-09T07:00:21.440Z,78
2018-05-09T07:01:22.836Z,78
2018-05-09T07:02:24.231Z,78
2018-05-09T07:03:25.631Z,78
2018-05-09T07:04:27.033Z,78
2018-05-09T07:05:28.429Z,84
2018-05-09T07:06:29.957Z,84
2018-05-09T07:07:31.226Z,84
2018-05-09T07:08:32.623Z,84
2018-05-09T07:09:34.018Z,84
2018-05-09T07:10:35.419Z,84
2018-05-09T07:11:36.835Z,90
2018-05-09T07:12:38.324Z,90
2018-05-09T07:13:39.636Z,90
2018-05-09T07:14:41.031Z,90
2018-05-09T07:15:42.428Z,95
2018-05-09T07:16:43.823Z,95
2018-05-09T07:17:45.221Z,101
2018-05-09T07:18:46.618Z,106
2018-05-09T07:19:48.019Z,106
2018-05-09T07:20:49.419Z,112
2018-05-09T07:21:50.819Z,112
2018-05-09T07:22:52.317Z,106
2018-05-09T07:23:53.734Z,106
2018-05-09T07:24:55.129Z,106
2018-05-09T07:25:56.534Z,106
2018-05-09T07:26:57.925Z,106
2018-05-09T07:27:59.324Z,112
2018-05-09T07:29:00.724Z,112
2018-05-09T07:30:02.123Z,118
2018-05-09T07:31:03.521Z,123
2018-05-09T07:32:04.921Z,123
2018-05-09T07:33:06.316Z,129
2018-05-09T07:34:07.717Z,123
2018-05-09T07:35:09.117Z,123
2018-05-09T07:36:10.520Z,123
2018-05-09T07:37:11.919Z,129
2018-05-09T07:38:13.317Z,129
2018-05-09T07:39:14.714Z,129
2018-05-09T07:40:16.111Z,123
2018-05-09T07:41:17.515Z,129
2018-05-09T07:42:18.943Z,129
2018-05-09T07:43:20.317Z,129
2018-05-09T07:44:21.716Z,129
2018-05-09T07:45:23.111Z,129
2018-05-09T07:46:24.510Z,129
2018-05-09T07:47:25.911Z,129
2018-05-09T07:48:27.309Z,129
2018-05-09T07:49:28.710Z,129
2018-05-09T07:50:30.109Z,129
2018-05-09T07:51:31.508Z,129
2018-05-09T07:52:32.906Z,129
2018-05-09T07:53:34.303Z,129
2018-05-09T07:54:35.708Z,135
2018-05-09T07:55:37.202Z,135
2018-05-09T07:56:38.513Z,135
2018-05-09T07:57:39.915Z,135
2018-05-09T07:58:41.316Z,135
2018-05-09T07:59:42.711Z,135
2018-05-09T08:00:44.112Z,135
2018-05-09T08:01:45.511Z,135
2018-05-09T08:02:46.917Z,135
2018-05-09T08:03:48.315Z,140
2018-05-09T08:04:49.722Z,140
2018-05-09T08:05:51.120Z,140
2018-05-09T08:06:52.518Z,140
2018-05-09T08:07:53.917Z,140
2018-05-09T08:08:55.341Z,140
2018-05-09T08:09:56.756Z,146
2018-05-09T08:10:58.155Z,146
2018-05-09T08:11:59.561Z,146
2018-05-09T08:13:00.956Z,146
2018-05-09T08:14:02.346Z,146
2018-05-09T08:15:03.747Z,146
2018-05-09T08:16:05.161Z,151
2018-05-09T08:17:06.561Z,151
2018-05-09T08:18:07.963Z,151
2018-05-09T08:19:09.361Z,151
2018-05-09T08:20:10.759Z,151
2018-05-09T08:21:12.152Z,151
2018-05-09T08:22:13.556Z,157
2018-05-09T08:23:14.977Z,157
2018-05-09T08:24:16.373Z,157
2018-05-09T08:25:17.779Z,157
2018-05-09T08:26:19.184Z,157
2018-05-09T08:27:20.579Z,163
2018-05-09T08:28:21.997Z,163
2018-05-09T08:29:23.389Z,163
2018-05-09T08:30:24.849Z,163
2018-05-09T08:31:26.209Z,163
2018-05-09T08:32:27.612Z,168
2018-05-09T08:33:29.027Z,168
2018-05-09T08:34:30.427Z,168
2018-05-09T08:35:31.846Z,168
2018-05-09T08:36:33.266Z,174
2018-05-09T08:37:34.649Z,174
2018-05-09T08:38:36.050Z,174
2018-05-09T08:39:37.450Z,174
2018-05-09T08:40:38.853Z,180
2018-05-09T08:41:40.250Z,180
2018-05-09T08:42:41.652Z,180
2018-05-09T08:43:43.133Z,180
2018-05-09T08:44:44.451Z,185
2018-05-09T08:45:45.852Z,185
2018-05-09T08:46:47.255Z,185
2018-05-09T08:47:48.656Z,185
2018-05-09T08:48:50.053Z,191
2018-05-09T08:49:51.452Z,191
2018-05-09T08:50:52.854Z,191
2018-05-09T08:51:54.255Z,191
2018-05-09T08:52:55.656Z,196
2018-05-09T08:53:57.161Z,196
2018-05-09T08:54:58.555Z,196
2018-05-09T08:55:59.960Z,196
2018-05-09T08:57:01.359Z,202
2018-05-09T08:58:02.759Z,202
2018-05-09T08:59:04.158Z,202
2018-05-09T09:00:05.561Z,208
2018-05-09T09:01:06.964Z,208
2018-05-09T09:02:08.365Z,208
2018-05-09T09:03:09.765Z,208
2018-05-09T09:04:11.203Z,208
2018-05-09T09:05:12.590Z,208
2018-05-09T09:06:13.986Z,208
2018-05-09T09:07:15.396Z,213
2018-05-09T09:08:16.799Z,213
2018-05-09T09:09:18.203Z,213
2018-05-09T09:10:19.598Z,219
2018-05-09T09:11:21.001Z,219
2018-05-09T09:12:22.407Z,219
2018-05-09T09:13:23.801Z,225
2018-05-09T09:14:25.211Z,225
2018-05-09T09:15:26.655Z,225
2018-05-09T09:16:28.015Z,230
2018-05-09T09:17:29.420Z,230
2018-05-09T09:18:30.867Z,230
2018-05-09T09:19:32.220Z,236
2018-05-09T09:20:33.618Z,236
2018-05-09T09:21:35.021Z,236
2018-05-09T09:22:36.421Z,236
2018-05-09T09:23:37.825Z,241
2018-05-09T09:24:39.226Z,241
2018-05-09T09:25:40.626Z,241
2018-05-09T09:26:42.030Z,247
2018-05-09T09:27:43.429Z,247
2018-05-09T09:28:44.832Z,247
2018-05-09T09:29:46.234Z,247
2018-05-09T09:30:47.640Z,253
2018-05-09T09:31:49.035Z,253
2018-05-09T09:32:50.443Z,264
2018-05-09T09:33:51.892Z,258
2018-05-09T09:34:53.246Z,258
2018-05-09T09:35:54.645Z,264
2018-05-09T09:36:56.048Z,264
2018-05-09T09:37:57.449Z,270
2018-05-09T09:38:58.863Z,270
2018-05-09T09:40:00.290Z,270
2018-05-09T09:41:01.693Z,275
2018-05-09T09:42:03.103Z,275
2018-05-09T09:43:04.507Z,275
2018-05-09T09:44:05.911Z,281
2018-05-09T09:45:07.331Z,281
2018-05-09T09:46:08.728Z,286
2018-05-09T09:47:10.129Z,286
2018-05-09T09:48:11.527Z,286
2018-05-09T09:49:12.932Z,286
2018-05-09T09:50:14.337Z,292
2018-05-09T09:51:15.741Z,292
2018-05-09T09:52:17.145Z,292
2018-05-09T09:53:18.547Z,298
2018-05-09T09:54:19.950Z,298
2018-05-09T09:55:21.353Z,303
2018-05-09T09:56:22.749Z,303
2018-05-09T09:57:24.158Z,309
2018-05-09T09:58:25.564Z,309
2018-05-09T09:59:26.967Z,315
2018-05-09T10:00:28.366Z,320
2018-05-09T10:01:29.768Z,320
2018-05-09T10:02:31.171Z,326
2018-05-09T10:03:32.572Z,326
2018-05-09T10:04:33.976Z,331
2018-05-09T10:05:35.381Z,331
2018-05-09T10:06:36.782Z,343
2018-05-09T10:07:38.184Z,348
2018-05-09T10:08:39.583Z,343
2018-05-09T10:09:40.985Z,348
2018-05-09T10:10:42.415Z,354
2018-05-09T10:11:43.816Z,354
2018-05-09T10:12:45.219Z,360
2018-05-09T10:13:46.628Z,365
2018-05-09T10:14:48.029Z,365
2018-05-09T10:15:49.486Z,371
2018-05-09T10:16:50.888Z,376
2018-05-09T10:17:52.289Z,376
2018-05-09T10:18:53.697Z,382
2018-05-09T10:19:55.103Z,388
2018-05-09T10:20:56.509Z,393
2018-05-09T10:21:57.910Z,399
2018-05-09T10:22:59.315Z,405
2018-05-09T10:24:00.751Z,410
2018-05-09T10:25:02.212Z,416
2018-05-09T10:26:03.619Z,421
2018-05-09T10:27:05.025Z,427
2018-05-09T10:28:06.430Z,433
2018-05-09T10:29:07.837Z,438
2018-05-09T10:30:09.243Z,450
2018-05-09T10:31:10.641Z,455
2018-05-09T10:32:12.044Z,466
2018-05-09T10:33:13.448Z,472
2018-05-09T10:34:14.854Z,478
2018-05-09T10:35:16.263Z,489
2018-05-09T10:36:17.662Z,500
2018-05-09T10:37:19.064Z,511
2018-05-09T10:38:20.470Z,523
2018-05-09T10:39:21.880Z,540
2018-05-09T10:40:23.287Z,556
2018-05-09T10:41:24.695Z,573
2018-05-09T10:42:26.098Z,585
2018-05-09T10:43:27.503Z,613
2018-05-09T10:44:28.906Z,630
2018-05-09T10:45:30.319Z,658
2018-05-09T10:46:31.726Z,686
2018-05-09T10:47:33.136Z,725
2018-05-09T10:48:34.537Z,765
2018-05-09T10:49:35.944Z,826
2018-05-09T10:50:37.347Z,894
2018-05-09T10:51:38.756Z,984
2018-05-09T10:52:40.162Z,1091
2018-05-09T10:53:41.564Z,1198
2018-05-09T10:54:42.973Z,1299
2018-05-09T10:55:44.381Z,1361
2018-05-09T10:56:45.792Z,1400
2018-05-09T10:57:47.201Z,1434
2018-05-09T10:58:48.605Z,1456
2018-05-09T10:59:50.013Z,1473
2018-05-09T11:00:51.421Z,1490
2018-05-09T11:01:52.832Z,1513
2018-05-09T11:02:54.245Z,1518
2018-05-09T11:03:55.651Z,1530
2018-05-09T11:04:57.065Z,1518
2018-05-09T11:05:58.463Z,1485
2018-05-09T11:06:59.873Z,1468
2018-05-09T11:08:01.284Z,1445
2018-05-09T11:09:02.714Z,1423
2018-05-09T11:10:04.189Z,1400
2018-05-09T11:11:05.602Z,1355
2018-05-09T11:12:07.025Z,1333
2018-05-09T11:13:08.433Z,1299
2018-05-09T11:14:09.845Z,1265
2018-05-09T11:15:11.266Z,1248
2018-05-09T11:16:12.667Z,1220
2018-05-09T11:17:14.076Z,1192
2018-05-09T11:18:15.489Z,1170
2018-05-09T11:19:16.898Z,1147
2018-05-09T11:20:18.304Z,1136
2018-05-09T11:21:19.713Z,1119
2018-05-09T11:22:21.122Z,1102
2018-05-09T11:23:22.534Z,1085
2018-05-09T11:24:23.966Z,1074
2018-05-09T11:25:25.362Z,1063
2018-05-09T11:26:26.769Z,1046
2018-05-09T11:27:28.177Z,1040
2018-05-09T11:28:29.586Z,1029
2018-05-09T11:29:30.994Z,1023
2018-05-09T11:30:32.403Z,1029
2018-05-09T11:31:33.815Z,1006
2018-05-09T11:32:35.245Z,1006
2018-05-09T11:33:36.650Z,995
2018-05-09T11:34:38.058Z,978
2018-05-09T11:35:39.472Z,973
2018-05-09T11:36:40.874Z,973
2018-05-09T11:37:42.298Z,961
2018-05-09T11:38:43.707Z,956
2018-05-09T11:39:45.122Z,956
2018-05-09T11:40:46.530Z,956
2018-05-09T11:41:47.933Z,950
2018-05-09T11:42:49.344Z,945
2018-05-09T11:43:50.753Z,950
2018-05-09T11:44:52.167Z,945
2018-05-09T11:45:53.572Z,933
2018-05-09T11:46:54.983Z,922
2018-05-09T11:47:56.387Z,922
2018-05-09T11:48:57.796Z,922
2018-05-09T11:49:59.206Z,922
2018-05-09T11:51:00.616Z,916
2018-05-09T11:52:02.029Z,911
2018-05-09T11:53:03.520Z,905
2018-05-09T11:54:04.945Z,905
2018-05-09T11:55:06.363Z,894
2018-05-09T11:56:07.772Z,888
2018-05-09T11:57:09.178Z,883
2018-05-09T11:58:10.584Z,888
2018-05-09T11:59:11.994Z,888
2018-05-09T12:00:13.408Z,883
2018-05-09T12:01:14.823Z,877
2018-05-09T12:02:16.276Z,877
2018-05-09T12:03:17.635Z,877
2018-05-09T12:04:19.044Z,871
2018-05-09T12:05:20.597Z,866
2018-05-09T12:06:21.969Z,866
2018-05-09T12:07:23.376Z,855
2018-05-09T12:08:24.793Z,855
2018-05-09T12:09:26.201Z,855
2018-05-09T12:10:27.708Z,849
2018-05-09T12:11:29.016Z,849
2018-05-09T12:12:30.425Z,849
2018-05-09T12:13:31.833Z,849
2018-05-09T12:14:33.239Z,832
2018-05-09T12:15:34.650Z,832
2018-05-09T12:16:36.058Z,832
2018-05-09T12:17:37.461Z,826
2018-05-09T12:18:38.871Z,832
2018-05-09T12:19:40.320Z,826
2018-05-09T12:20:41.731Z,843
2018-05-09T12:21:43.146Z,849
2018-05-09T12:22:44.553Z,855
2018-05-09T12:23:46.240Z,849
2018-05-09T12:24:47.653Z,849
2018-05-09T12:25:49.063Z,843
2018-05-09T12:26:50.474Z,838
2018-05-09T12:27:51.925Z,832
2018-05-09T12:28:53.335Z,821
2018-05-09T12:29:54.795Z,821
2018-05-09T12:30:56.209Z,826
2018-05-09T12:31:57.616Z,832
2018-05-09T12:32:59.033Z,849
2018-05-09T12:34:00.432Z,855
2018-05-09T12:35:01.846Z,855
2018-05-09T12:36:03.256Z,860
2018-05-09T12:37:04.758Z,849
2018-05-09T12:38:06.321Z,849
2018-05-09T12:39:07.728Z,849
2018-05-09T12:40:09.139Z,855
2018-05-09T12:41:10.554Z,849
2018-05-09T12:42:11.970Z,855
2018-05-09T12:43:13.374Z,866
2018-05-09T12:44:14.788Z,866
2018-05-09T12:45:16.202Z,866
2018-05-09T12:46:17.614Z,866
2018-05-09T12:47:19.022Z,866
2018-05-09T12:48:20.428Z,860
2018-05-09T12:49:21.856Z,866
2018-05-09T12:50:23.267Z,860
2018-05-09T12:51:24.672Z,849
2018-05-09T12:52:26.081Z,843
2018-05-09T12:53:27.488Z,843
2018-05-09T12:54:28.907Z,849
2018-05-09T12:55:30.312Z,838
2018-05-09T12:56:31.729Z,838
2018-05-09T12:57:33.573Z,826
2018-05-09T12:58:34.990Z,826
2018-05-09T12:59:36.401Z,815
2018-05-09T13:00:37.804Z,821
2018-05-09T13:01:39.213Z,821
2018-05-09T13:02:40.620Z,821
2018-05-09T13:03:42.037Z,821
2018-05-09T13:04:43.443Z,821
2018-05-09T13:05:44.857Z,815
2018-05-09T13:06:46.348Z,815
2018-05-09T13:07:47.675Z,810
2018-05-09T13:08:49.087Z,810
2018-05-09T13:09:50.516Z,810
2018-05-09T13:10:51.928Z,804
2018-05-09T13:11:53.444Z,804
2018-05-09T13:12:54.852Z,810
2018-05-09T13:13:56.265Z,798
2018-05-09T13:14:57.670Z,804
2018-05-09T13:15:59.076Z,793
2018-05-09T13:17:00.496Z,793
2018-05-09T13:18:01.905Z,798
2018-05-09T13:19:03.318Z,793
2018-05-09T13:20:04.728Z,793
2018-05-09T13:21:06.166Z,798
2018-05-09T13:22:07.574Z,787
2018-05-09T13:23:08.980Z,781
2018-05-09T13:24:10.389Z,787
2018-05-09T13:25:11.802Z,781
2018-05-09T13:26:13.209Z,770
2018-05-09T13:27:14.632Z,765
2018-05-09T13:28:16.042Z,770
2018-05-09T13:29:17.451Z,765
2018-05-09T13:30:18.860Z,770
2018-05-09T13:31:20.267Z,770
2018-05-09T13:32:21.681Z,765
2018-05-09T13:33:23.103Z,759
2018-05-09T13:34:24.500Z,759
2018-05-09T13:35:25.907Z,753
2018-05-09T13:36:27.314Z,759
2018-05-09T13:37:28.725Z,759
2018-05-09T13:38:30.131Z,753
2018-05-09T13:39:31.543Z,748
2018-05-09T13:40:32.952Z,748
2018-05-09T13:41:34.364Z,742
2018-05-09T13:42:35.772Z,742
2018-05-09T13:43:37.187Z,742
2018-05-09T13:44:38.598Z,742
2018-05-09T13:45:40.000Z,736
2018-05-09T13:46:41.416Z,731
2018-05-09T13:47:42.819Z,731
2018-05-09T13:48:44.260Z,725
2018-05-09T13:49:45.672Z,720
2018-05-09T13:50:47.080Z,714
2018-05-09T13:51:48.491Z,720
2018-05-09T13:52:49.904Z,708
2018-05-09T13:53:51.373Z,708
2018-05-09T13:54:52.732Z,703
2018-05-09T13:55:54.142Z,703
2018-05-09T13:56:55.551Z,697
2018-05-09T13:57:56.964Z,686
2018-05-09T13:58:58.373Z,680
2018-05-09T13:59:59.810Z,669
2018-05-09T14:01:01.213Z,663
2018-05-09T14:02:02.625Z,663
2018-05-09T14:03:04.030Z,658
2018-05-09T14:04:05.444Z,658
2018-05-09T14:05:06.920Z,652
2018-05-09T14:06:08.337Z,646
2018-05-09T14:07:09.738Z,641
2018-05-09T14:08:11.153Z,635
2018-05-09T14:09:12.560Z,635
2018-05-09T14:10:13.972Z,630
2018-05-09T14:11:15.381Z,630
2018-05-09T14:12:16.786Z,624
2018-05-09T14:13:18.195Z,624
2018-05-09T14:14:19.603Z,618
2018-05-09T14:15:21.014Z,618
2018-05-09T14:16:22.420Z,613
2018-05-09T14:17:23.832Z,613
2018-05-09T14:18:25.263Z,607
2018-05-09T14:19:26.672Z,607
2018-05-09T14:20:28.080Z,601
2018-05-09T14:21:29.492Z,596
2018-05-09T14:22:30.903Z,590
2018-05-09T14:23:32.318Z,590
2018-05-09T14:24:33.728Z,585
2018-05-09T14:25:35.134Z,585
2018-05-09T14:26:36.542Z,585
2018-05-09T14:27:37.954Z,585
2018-05-09T14:28:39.366Z,579